Time;durP1;ratioP1;P1;durP2;ratioP2;P2;SDS_P1;SDS_P2;PMS_P1;PMS_P2;Temp;Humidity;BMP_temperature;BMP_pressure;BME280_temperature;BME280_humidity;BME280_pressure;Samples;Min_cycle;Max_cycle;Signal;HPM_P1;HPM_P2
2023/03/19 00:01:57;;;;;;;0.73;0.10;;;11.10;99.90;;;;;;5015158;28;20074;-89
2023/03/19 00:04:26;;;;;;;0.45;0.10;;;11.10;99.90;;;;;;5044946;28;20044;-92
2023/03/19 00:06:52;;;;;;;0.57;0.13;;;11.10;99.90;;;;;;5030917;28;20118;-87
2023/03/19 00:09:19;;;;;;;1.60;0.10;;;11.10;99.90;;;;;;5030035;28;20021;-90
2023/03/19 00:11:46;;;;;;;0.68;0.10;;;11.10;99.90;;;;;;5011372;28;20038;-90
2023/03/19 00:14:12;;;;;;;0.80;0.10;;;11.10;99.90;;;;;;5023763;28;20030;-88
2023/03/19 00:16:37;;;;;;;0.40;0.20;;;11.00;99.90;;;;;;5034170;28;20088;-89
2023/03/19 00:19:03;;;;;;;0.60;0.20;;;11.00;99.90;;;;;;5037831;28;20433;-92
2023/03/19 00:21:31;;;;;;;0.28;0.10;;;10.90;99.90;;;;;;5020142;28;20120;-92
2023/03/19 00:23:59;;;;;;;0.70;0.15;;;10.90;99.90;;;;;;5023098;28;20104;-92
2023/03/19 00:26:29;;;;;;;0.90;0.20;;;10.80;99.90;;;;;;5029249;28;20041;-91
2023/03/19 00:28:56;;;;;;;0.40;0.20;;;10.80;99.90;;;;;;5028700;28;20025;-93
2023/03/19 00:31:22;;;;;;;0.52;0.10;;;10.70;99.90;;;;;;5027013;28;20452;-92
2023/03/19 00:33:48;;;;;;;0.20;0.10;;;10.70;99.90;;;;;;5022201;28;20041;-91
2023/03/19 00:36:17;;;;;;;0.15;0.10;;;10.70;99.90;;;;;;5023517;28;20128;-92
2023/03/19 00:38:45;;;;;;;1.02;0.13;;;10.70;99.90;;;;;;5024365;28;20036;-93
2023/03/19 00:41:11;;;;;;;0.57;0.10;;;10.60;99.90;;;;;;5026140;28;20020;-91
2023/03/19 00:43:38;;;;;;;0.20;0.10;;;10.60;99.90;;;;;;5026984;28;20473;-92
2023/03/19 00:46:05;;;;;;;0.20;0.10;;;10.50;99.90;;;;;;5025221;28;20060;-94
2023/03/19 00:48:32;;;;;;;0.35;0.10;;;10.60;99.90;;;;;;5042421;28;20040;-92
2023/03/19 00:51:05;;;;;;;0.43;0.10;;;10.50;99.90;;;;;;5013475;28;20037;-91
2023/03/19 00:53:31;;;;;;;0.65;0.10;;;10.60;99.90;;;;;;5040345;28;20061;-93
2023/03/19 00:55:57;;;;;;;0.30;0.10;;;10.50;99.90;;;;;;5029995;28;20040;-93
2023/03/19 00:58:23;;;;;;;1.20;0.10;;;10.50;99.90;;;;;;5013106;28;20136;-91
2023/03/19 01:00:53;;;;;;;0.55;0.10;;;10.50;99.90;;;;;;5042526;28;20398;-92
2023/03/19 01:03:19;;;;;;;0.28;0.05;;;10.40;99.90;;;;;;5032846;28;20120;-91
2023/03/19 01:05:48;;;;;;;0.20;0.00;;;10.40;99.90;;;;;;5011070;28;20469;-91
2023/03/19 01:08:15;;;;;;;0.50;0.10;;;10.40;99.90;;;;;;5017612;28;20029;-90
2023/03/19 01:10:41;;;;;;;0.60;0.10;;;10.40;99.90;;;;;;5035367;28;20024;-92
2023/03/19 01:13:07;;;;;;;0.50;0.10;;;10.40;99.90;;;;;;5040023;28;20524;-89
2023/03/19 01:15:41;;;;;;;0.30;0.10;;;10.30;99.90;;;;;;5034342;28;20025;-90
2023/03/19 01:18:08;;;;;;;0.43;0.10;;;10.30;99.90;;;;;;5010879;28;20470;-92
2023/03/19 01:20:35;;;;;;;0.60;0.10;;;10.30;99.90;;;;;;5050115;28;20025;-92
2023/03/19 01:23:01;;;;;;;0.40;0.10;;;10.30;99.90;;;;;;5021929;28;20117;-90
2023/03/19 01:25:27;;;;;;;0.40;0.10;;;10.30;99.90;;;;;;5021810;28;20096;-89
2023/03/19 01:28:03;;;;;;;1.13;0.10;;;10.20;99.90;;;;;;5021295;28;20032;-90
2023/03/19 01:30:29;;;;;;;0.65;0.10;;;10.10;99.90;;;;;;5020432;28;20029;-90
2023/03/19 01:33:14;;;;;;;0.60;0.13;;;10.10;99.90;;;;;;5031544;28;20038;-91
2023/03/19 01:35:51;;;;;;;0.73;0.10;;;10.00;99.90;;;;;;5022339;28;20109;-90
2023/03/19 01:38:18;;;;;;;0.95;0.20;;;10.10;99.90;;;;;;5019460;28;20462;-92
2023/03/19 01:40:46;;;;;;;0.20;0.10;;;10.10;99.90;;;;;;5047019;28;20500;-89
2023/03/19 01:43:17;;;;;;;0.68;0.10;;;10.10;99.90;;;;;;5034125;28;20486;-90
2023/03/19 01:46:05;;;;;;;1.17;0.20;;;10.10;99.90;;;;;;5020355;28;20048;-91
2023/03/19 01:48:58;;;;;;;0.25;0.10;;;10.10;99.90;;;;;;5023948;28;20116;-91
2023/03/19 01:51:29;;;;;;;0.47;0.17;;;10.10;99.90;;;;;;5022059;28;20045;-89
2023/03/19 01:54:18;;;;;;;0.45;0.10;;;10.10;99.90;;;;;;5035264;28;20056;-91
2023/03/19 01:57:06;;;;;;;0.30;0.10;;;10.10;99.90;;;;;;5023167;28;20054;-91
2023/03/19 01:59:53;;;;;;;0.50;0.10;;;10.10;99.90;;;;;;5032795;28;20037;-90
2023/03/19 02:02:55;;;;;;;1.05;0.17;;;10.00;99.90;;;;;;5039654;28;20045;-93
2023/03/19 02:05:48;;;;;;;0.40;0.10;;;10.00;99.90;;;;;;5025689;28;20087;-90
2023/03/19 02:08:16;;;;;;;0.30;0.10;;;10.10;99.90;;;;;;5022295;28;20473;-92
2023/03/19 02:10:45;;;;;;;0.73;0.20;;;10.10;99.90;;;;;;5029530;28;20417;-91
2023/03/19 02:13:11;;;;;;;0.60;0.20;;;10.00;99.90;;;;;;5032590;28;20021;-90
2023/03/19 02:15:37;;;;;;;0.68;0.20;;;10.00;99.90;;;;;;5019007;28;20026;-91
2023/03/19 02:18:03;;;;;;;0.60;0.20;;;10.00;99.90;;;;;;5040790;28;20043;-91
2023/03/19 02:20:41;;;;;;;0.68;0.20;;;10.00;99.90;;;;;;5021614;28;20039;-91
2023/03/19 02:23:33;;;;;;;0.63;0.20;;;10.00;99.90;;;;;;5033042;28;20044;-91
2023/03/19 02:26:06;;;;;;;0.60;0.20;;;9.90;99.90;;;;;;5013779;28;20033;-92
2023/03/19 02:28:35;;;;;;;1.13;0.30;;;9.90;99.90;;;;;;5041898;28;20493;-90
2023/03/19 02:31:01;;;;;;;0.63;0.20;;;10.00;99.90;;;;;;5018081;28;20092;-91
2023/03/19 02:33:28;;;;;;;0.60;0.25;;;10.00;99.90;;;;;;5026824;28;20032;-90
2023/03/19 02:35:56;;;;;;;0.82;0.20;;;10.00;99.90;;;;;;5025942;28;20861;-92
2023/03/19 02:38:25;;;;;;;0.88;0.30;;;10.10;99.90;;;;;;5028087;28;20039;-91
2023/03/19 02:41:06;;;;;;;0.57;0.20;;;10.10;99.90;;;;;;5045581;28;20032;-91
2023/03/19 02:43:34;;;;;;;1.92;0.30;;;10.10;99.90;;;;;;5024772;28;20331;-90
2023/03/19 02:46:06;;;;;;;0.82;0.30;;;10.20;99.90;;;;;;5011885;28;20040;-91
2023/03/19 02:48:33;;;;;;;0.80;0.30;;;10.10;99.90;;;;;;5021475;28;20139;-92
2023/03/19 02:50:59;;;;;;;0.68;0.20;;;10.10;99.90;;;;;;5024658;28;20496;-90
2023/03/19 02:53:25;;;;;;;0.77;0.22;;;10.10;99.90;;;;;;5042892;28;20030;-92
2023/03/19 02:55:51;;;;;;;1.20;0.30;;;10.10;99.90;;;;;;5014813;28;20025;-91
2023/03/19 02:58:17;;;;;;;0.70;0.30;;;10.10;99.90;;;;;;5039311;28;20547;-90
2023/03/19 03:00:44;;;;;;;0.60;0.25;;;10.10;99.90;;;;;;5036977;28;20396;-91
2023/03/19 03:03:09;;;;;;;0.60;0.20;;;10.10;99.90;;;;;;5020517;28;20030;-90
2023/03/19 03:05:35;;;;;;;0.80;0.40;;;10.10;99.90;;;;;;5039594;28;20048;-93
2023/03/19 03:08:03;;;;;;;0.60;0.30;;;10.20;99.90;;;;;;5015654;28;20036;-92
2023/03/19 03:10:28;;;;;;;0.80;0.30;;;10.10;99.90;;;;;;5021808;28;20111;-91
2023/03/19 03:12:54;;;;;;;0.70;0.30;;;10.10;99.90;;;;;;5012115;28;20568;-91
2023/03/19 03:15:20;;;;;;;1.00;0.30;;;10.10;99.90;;;;;;5020323;28;20021;-92
2023/03/19 03:17:46;;;;;;;1.38;0.40;;;10.10;99.90;;;;;;5038360;28;20027;-91
2023/03/19 03:20:13;;;;;;;0.80;0.30;;;10.20;99.90;;;;;;5041515;28;20025;-90
2023/03/19 03:22:40;;;;;;;1.02;0.30;;;10.20;99.90;;;;;;5025833;28;20031;-91
2023/03/19 03:25:06;;;;;;;0.75;0.30;;;10.20;99.90;;;;;;5029381;28;20389;-93
2023/03/19 03:27:32;;;;;;;0.93;0.30;;;10.10;99.90;;;;;;5034818;28;20056;-91
2023/03/19 03:29:58;;;;;;;0.75;0.30;;;10.10;99.90;;;;;;5025469;28;20021;-91
2023/03/19 03:32:24;;;;;;;1.20;0.30;;;10.20;99.90;;;;;;5025734;28;20466;-92
2023/03/19 03:34:49;;;;;;;1.00;0.30;;;10.20;99.90;;;;;;5020228;28;20079;-92
2023/03/19 03:37:16;;;;;;;1.20;0.30;;;10.20;99.90;;;;;;5015084;28;20084;-91
2023/03/19 03:39:42;;;;;;;1.00;0.40;;;10.10;99.90;;;;;;5031118;28;20040;-92
2023/03/19 03:42:07;;;;;;;0.52;0.20;;;10.10;99.90;;;;;;5030968;28;20119;-92
2023/03/19 03:44:35;;;;;;;0.98;0.22;;;10.10;99.90;;;;;;5029056;28;20113;-90
2023/03/19 03:47:01;;;;;;;0.88;0.30;;;10.10;99.90;;;;;;5028290;28;20080;-92
2023/03/19 03:49:27;;;;;;;0.90;0.30;;;10.10;99.90;;;;;;5019433;28;20037;-91
2023/03/19 03:51:53;;;;;;;1.10;0.40;;;10.10;99.90;;;;;;5045205;28;20040;-94
2023/03/19 03:54:18;;;;;;;1.38;0.40;;;10.10;99.90;;;;;;5006528;28;20485;-92
2023/03/19 03:56:44;;;;;;;1.20;0.50;;;10.10;99.90;;;;;;5027029;28;20049;-89
2023/03/19 03:59:11;;;;;;;1.30;0.45;;;10.00;99.90;;;;;;5021887;28;20026;-91
2023/03/19 04:01:37;;;;;;;1.30;0.43;;;10.00;99.90;;;;;;5028377;28;20036;-93
2023/03/19 04:04:03;;;;;;;1.05;0.50;;;10.00;99.90;;;;;;5025087;28;20482;-92
2023/03/19 04:06:29;;;;;;;1.52;0.50;;;10.10;99.90;;;;;;5027290;28;20072;-90
2023/03/19 04:09:19;;;;;;;0.77;0.40;;;10.00;99.90;;;;;;5030688;28;20467;-90
2023/03/19 04:11:45;;;;;;;1.35;0.40;;;10.00;99.90;;;;;;5047782;28;20048;-90
2023/03/19 04:14:10;;;;;;;1.25;0.50;;;10.00;99.90;;;;;;5042102;28;20116;-92
2023/03/19 04:16:38;;;;;;;1.23;0.50;;;10.00;99.90;;;;;;5028541;28;20037;-91
2023/03/19 04:19:03;;;;;;;1.63;0.50;;;10.00;99.90;;;;;;5028082;28;20144;-90
2023/03/19 04:21:29;;;;;;;1.38;0.52;;;10.00;99.90;;;;;;5025046;28;20076;-90
2023/03/19 04:23:55;;;;;;;1.20;0.40;;;10.00;99.90;;;;;;5052500;28;20017;-91
2023/03/19 04:26:21;;;;;;;1.45;0.40;;;10.00;99.90;;;;;;5016908;28;20088;-91
2023/03/19 04:28:47;;;;;;;1.25;0.50;;;9.90;99.90;;;;;;5026396;28;20030;-90
2023/03/19 04:31:14;;;;;;;1.02;0.47;;;9.90;99.90;;;;;;5027574;28;20060;-90
2023/03/19 04:33:43;;;;;;;1.00;0.50;;;9.90;99.90;;;;;;5023754;28;20029;-92
2023/03/19 04:36:09;;;;;;;1.38;0.68;;;9.90;99.90;;;;;;5013927;28;20034;-92
2023/03/19 04:38:37;;;;;;;1.50;0.50;;;9.90;99.90;;;;;;5053742;28;20041;-91
2023/03/19 04:41:03;;;;;;;2.30;0.50;;;9.90;99.90;;;;;;5024432;28;20367;-92
2023/03/19 04:43:29;;;;;;;1.25;0.40;;;9.90;99.90;;;;;;5024631;28;20017;-89
2023/03/19 04:45:54;;;;;;;1.13;0.50;;;9.80;99.90;;;;;;5039962;28;20126;-91
2023/03/19 04:48:21;;;;;;;1.75;0.50;;;9.90;99.90;;;;;;5021635;28;20018;-90
2023/03/19 04:50:51;;;;;;;1.33;0.50;;;9.80;99.90;;;;;;5012183;28;20029;-90
2023/03/19 04:53:19;;;;;;;1.40;0.50;;;9.80;99.90;;;;;;5038800;28;20044;-92
2023/03/19 04:55:46;;;;;;;1.60;0.80;;;9.80;99.90;;;;;;5027986;28;20037;-91
2023/03/19 04:58:16;;;;;;;1.27;0.50;;;9.80;99.90;;;;;;5023570;28;20520;-91
2023/03/19 05:00:46;;;;;;;1.45;0.50;;;9.80;99.90;;;;;;5038244;28;20393;-91
2023/03/19 05:03:16;;;;;;;1.20;0.50;;;9.70;99.90;;;;;;5020220;28;20025;-90
2023/03/19 05:05:42;;;;;;;1.23;0.45;;;9.60;99.90;;;;;;5043184;28;20061;-91
2023/03/19 05:08:08;;;;;;;2.78;0.73;;;9.70;99.90;;;;;;5009692;28;20022;-91
2023/03/19 05:10:36;;;;;;;1.25;0.45;;;9.70;99.90;;;;;;5025350;28;20040;-92
2023/03/19 05:13:03;;;;;;;1.50;0.50;;;9.70;99.90;;;;;;5024387;28;20339;-91
2023/03/19 05:15:29;;;;;;;2.10;0.50;;;9.70;99.90;;;;;;5019959;28;20045;-92
2023/03/19 05:18:05;;;;;;;1.00;0.50;;;9.70;99.90;;;;;;5012581;28;20473;-90
2023/03/19 05:20:36;;;;;;;1.45;0.60;;;9.70;99.90;;;;;;5023595;28;20060;-90
2023/03/19 05:23:06;;;;;;;1.55;0.60;;;9.70;99.90;;;;;;5019465;28;20041;-91
2023/03/19 05:25:50;;;;;;;1.20;0.40;;;9.70;99.90;;;;;;5037953;28;20044;-91
2023/03/19 05:28:22;;;;;;;1.95;0.60;;;9.60;99.90;;;;;;5023030;28;20106;-92
2023/03/19 05:30:47;;;;;;;1.33;0.50;;;9.70;99.90;;;;;;5012116;28;20065;-90
2023/03/19 05:33:18;;;;;;;1.80;0.60;;;9.60;99.90;;;;;;5023983;28;20018;-91
2023/03/19 05:35:44;;;;;;;1.48;0.52;;;9.60;99.90;;;;;;5017810;28;20036;-92
2023/03/19 05:38:33;;;;;;;1.55;0.50;;;9.60;99.90;;;;;;5030775;28;20044;-90
2023/03/19 05:41:05;;;;;;;2.03;0.70;;;9.60;99.90;;;;;;5012625;28;20032;-93
2023/03/19 05:43:40;;;;;;;1.50;0.63;;;9.60;99.90;;;;;;5026233;28;20037;-90
2023/03/19 05:46:12;;;;;;;1.23;0.60;;;9.60;99.90;;;;;;5014007;28;20036;-91
2023/03/19 05:48:38;;;;;;;1.45;0.60;;;9.60;99.90;;;;;;5045579;28;20098;-91
2023/03/19 05:51:06;;;;;;;1.83;0.70;;;9.60;99.90;;;;;;5019838;28;20104;-90
2023/03/19 05:53:36;;;;;;;2.00;0.60;;;9.60;99.90;;;;;;5019890;28;20044;-92
2023/03/19 05:56:29;;;;;;;1.15;0.50;;;9.60;99.90;;;;;;5038150;28;20041;-91
2023/03/19 05:59:14;;;;;;;1.60;0.60;;;9.60;99.90;;;;;;5029960;28;20378;-91
2023/03/19 06:01:44;;;;;;;1.38;0.60;;;9.60;99.90;;;;;;5023492;28;20127;-91
2023/03/19 06:04:10;;;;;;;2.28;0.68;;;9.50;99.90;;;;;;5017351;28;20033;-91
2023/03/19 06:06:36;;;;;;;1.95;0.80;;;9.50;99.90;;;;;;5042431;28;20041;-91
2023/03/19 06:09:02;;;;;;;1.98;0.95;;;9.50;99.90;;;;;;5030659;28;20104;-91
2023/03/19 06:11:35;;;;;;;1.77;0.70;;;9.40;99.90;;;;;;5012199;28;20029;-92
2023/03/19 06:14:26;;;;;;;1.40;0.80;;;9.30;99.90;;;;;;5037169;28;20025;-89
2023/03/19 06:17:12;;;;;;;2.50;1.13;;;9.30;99.90;;;;;;5009503;28;20414;-91
2023/03/19 06:19:38;;;;;;;2.30;1.48;;;9.30;99.90;;;;;;5032687;28;20037;-88
2023/03/19 06:22:06;;;;;;;3.03;1.33;;;9.30;99.90;;;;;;5027568;28;20025;-91
2023/03/19 06:24:32;;;;;;;3.25;1.42;;;9.40;99.90;;;;;;5018504;28;20492;-91
2023/03/19 06:26:58;;;;;;;2.42;1.55;;;9.40;99.90;;;;;;5026250;28;20052;-91
2023/03/19 06:29:24;;;;;;;2.78;1.52;;;9.50;99.90;;;;;;5024891;28;20033;-90
2023/03/19 06:31:56;;;;;;;2.88;1.38;;;9.60;99.90;;;;;;5008416;28;20034;-92
2023/03/19 06:34:31;;;;;;;2.47;1.10;;;9.60;99.90;;;;;;5027133;28;20157;-92
2023/03/19 06:36:57;;;;;;;1.83;0.90;;;9.70;99.90;;;;;;5031523;28;20025;-92
2023/03/19 06:39:23;;;;;;;1.90;0.95;;;9.80;99.90;;;;;;5036574;28;20104;-91
2023/03/19 06:41:49;;;;;;;1.73;0.80;;;9.80;99.90;;;;;;5032382;28;20025;-89
2023/03/19 06:44:17;;;;;;;1.50;0.70;;;9.90;99.90;;;;;;5022973;28;20032;-91
2023/03/19 06:46:43;;;;;;;1.70;0.88;;;10.00;99.90;;;;;;5018655;28;20050;-90
2023/03/19 06:49:09;;;;;;;1.90;0.80;;;10.00;99.90;;;;;;5010798;28;20029;-91
2023/03/19 06:51:34;;;;;;;3.03;1.20;;;10.00;99.90;;;;;;5022646;28;20029;-91
2023/03/19 06:54:00;;;;;;;2.03;1.15;;;10.00;99.90;;;;;;5028351;28;20115;-91
2023/03/19 06:56:26;;;;;;;3.50;1.65;;;10.00;99.90;;;;;;5024255;28;20404;-91
2023/03/19 06:58:52;;;;;;;2.88;0.90;;;10.00;99.90;;;;;;5020353;28;20028;-92
2023/03/19 07:01:18;;;;;;;1.63;0.80;;;10.00;99.90;;;;;;5027455;28;20482;-91
2023/03/19 07:03:43;;;;;;;2.58;1.10;;;10.00;99.90;;;;;;5011343;28;20057;-93
2023/03/19 07:06:09;;;;;;;2.05;0.70;;;10.00;99.90;;;;;;5013982;28;20042;-94
2023/03/19 07:08:35;;;;;;;2.22;1.20;;;9.90;99.90;;;;;;5012075;28;20025;-93
2023/03/19 07:11:05;;;;;;;2.03;1.05;;;10.00;99.90;;;;;;5027703;28;20727;-91
2023/03/19 07:13:32;;;;;;;2.15;1.00;;;10.10;99.90;;;;;;5018469;28;20025;-93
2023/03/19 07:15:58;;;;;;;1.80;0.98;;;10.20;99.90;;;;;;5046409;28;20060;-94
2023/03/19 07:18:24;;;;;;;1.45;0.77;;;10.40;99.90;;;;;;5026965;28;20100;-94
2023/03/19 07:20:51;;;;;;;2.22;1.08;;;10.60;99.90;;;;;;5021766;28;20438;-92
2023/03/19 07:23:17;;;;;;;2.08;1.35;;;10.60;99.90;;;;;;5032760;28;20488;-94
2023/03/19 07:25:43;;;;;;;3.03;1.38;;;10.60;99.90;;;;;;5024414;28;20032;-90
2023/03/19 07:28:09;;;;;;;2.60;1.85;;;10.60;99.90;;;;;;5008564;28;20025;-93
2023/03/19 07:30:37;;;;;;;2.92;1.92;;;10.70;99.90;;;;;;5026003;28;20465;-94
2023/03/19 07:33:03;;;;;;;2.03;1.10;;;10.60;99.90;;;;;;5024606;28;20029;-94
2023/03/19 07:35:28;;;;;;;2.10;1.35;;;10.60;99.90;;;;;;5036962;28;20029;-93
2023/03/19 07:37:54;;;;;;;3.08;1.95;;;10.60;99.90;;;;;;5026975;28;20587;-93
2023/03/19 07:40:20;;;;;;;2.55;1.88;;;10.60;99.90;;;;;;5020686;28;20025;-93
2023/03/19 07:42:46;;;;;;;3.40;2.38;;;10.70;99.90;;;;;;5023167;28;20025;-93
2023/03/19 07:45:12;;;;;;;3.80;2.28;;;10.90;99.90;;;;;;5023197;28;20045;-92
2023/03/19 07:47:38;;;;;;;2.85;1.70;;;10.90;99.90;;;;;;5038050;28;20398;-93
2023/03/19 07:50:05;;;;;;;2.85;1.95;;;10.90;99.90;;;;;;5022232;28;20125;-95
2023/03/19 07:52:30;;;;;;;2.90;2.00;;;11.00;99.90;;;;;;5019375;28;20025;-93
2023/03/19 07:54:56;;;;;;;2.58;1.50;;;11.00;99.90;;;;;;5020479;28;20112;-93
2023/03/19 07:57:24;;;;;;;4.13;2.28;;;11.00;99.90;;;;;;5030997;28;20721;-93
2023/03/19 07:59:50;;;;;;;2.55;2.17;;;11.10;99.90;;;;;;5025834;28;20132;-92
2023/03/19 08:02:15;;;;;;;3.45;2.70;;;11.00;99.90;;;;;;5030170;28;20109;-95
2023/03/19 08:04:41;;;;;;;4.40;2.20;;;11.00;99.90;;;;;;5007721;28;20061;-91
2023/03/19 08:07:09;;;;;;;2.88;2.05;;;10.90;99.90;;;;;;5020573;28;20086;-90
2023/03/19 08:09:36;;;;;;;3.47;2.15;;;10.90;99.90;;;;;;5011223;28;20030;-94
2023/03/19 08:12:02;;;;;;;3.25;2.13;;;10.90;99.90;;;;;;5054632;28;20036;-95
2023/03/19 08:14:28;;;;;;;3.05;2.10;;;11.00;99.90;;;;;;5037571;28;20041;-93
2023/03/19 08:16:54;;;;;;;2.90;1.98;;;11.00;99.90;;;;;;5008409;28;20030;-96
2023/03/19 08:19:20;;;;;;;3.00;1.65;;;11.10;99.90;;;;;;5014124;28;20032;-94
2023/03/19 08:21:45;;;;;;;3.30;1.45;;;11.30;99.90;;;;;;5023368;28;20111;-92
2023/03/19 08:24:11;;;;;;;3.05;2.42;;;11.60;99.90;;;;;;5022697;28;20061;-94
2023/03/19 08:26:37;;;;;;;3.28;1.50;;;11.90;99.90;;;;;;5038620;28;20508;-94
2023/03/19 08:29:03;;;;;;;3.40;1.83;;;12.10;99.90;;;;;;5014532;28;20052;-95
2023/03/19 08:31:29;;;;;;;4.18;1.75;;;12.20;99.90;;;;;;5024156;28;20516;-90
2023/03/19 08:33:55;;;;;;;3.17;2.15;;;12.20;99.90;;;;;;5022198;28;20033;-92
2023/03/19 08:36:21;;;;;;;5.22;2.33;;;12.10;99.90;;;;;;5025993;28;20208;-94
2023/03/19 08:38:46;;;;;;;3.17;2.50;;;12.00;99.90;;;;;;5026094;28;20179;-96
2023/03/19 08:41:12;;;;;;;4.55;3.53;;;12.00;99.90;;;;;;5015833;28;20414;-93
2023/03/19 08:43:38;;;;;;;3.67;2.30;;;12.00;99.90;;;;;;5023805;28;20112;-93
2023/03/19 08:46:04;;;;;;;3.35;2.50;;;12.10;99.90;;;;;;5009301;28;20042;-94
2023/03/19 08:48:30;;;;;;;5.85;2.20;;;12.30;99.90;;;;;;5027074;28;20067;-94
2023/03/19 08:50:57;;;;;;;2.92;2.10;;;12.20;99.90;;;;;;5021456;28;20037;-94
2023/03/19 08:53:24;;;;;;;3.15;1.90;;;12.20;99.90;;;;;;5012387;28;20564;-94
2023/03/19 08:55:55;;;;;;;5.03;1.95;;;12.00;99.90;;;;;;5035789;28;20058;-96
2023/03/19 08:58:21;;;;;;;2.97;1.55;;;11.90;99.90;;;;;;5026865;28;20492;-94
2023/03/19 09:00:48;;;;;;;7.90;3.03;;;12.00;99.90;;;;;;5019398;28;20053;-93
2023/03/19 09:03:14;;;;;;;3.92;2.80;;;11.90;99.90;;;;;;5026339;28;20036;-95
2023/03/19 09:05:40;;;;;;;2.53;1.65;;;11.90;99.90;;;;;;5008790;28;20091;-94
2023/03/19 09:08:06;;;;;;;3.17;1.38;;;12.20;99.90;;;;;;5035535;28;20025;-94
2023/03/19 09:10:33;;;;;;;2.40;1.25;;;12.30;99.90;;;;;;5033066;28;20021;-94
2023/03/19 09:13:00;;;;;;;3.13;1.48;;;12.70;99.90;;;;;;5011575;28;20022;-95
2023/03/19 09:15:26;;;;;;;3.67;2.30;;;13.20;99.90;;;;;;5035539;28;20064;-94
2023/03/19 09:17:52;;;;;;;3.95;2.85;;;13.30;99.90;;;;;;5010442;28;20076;-92
2023/03/19 09:20:18;;;;;;;4.93;3.28;;;12.70;99.90;;;;;;5020747;28;20056;-92
2023/03/19 09:22:44;;;;;;;3.35;2.33;;;12.00;99.90;;;;;;5009671;28;20095;-93
2023/03/19 09:25:10;;;;;;;4.55;2.47;;;11.90;99.90;;;;;;5019630;28;20028;-93
2023/03/19 09:27:36;;;;;;;3.63;2.85;;;11.80;99.90;;;;;;5022631;28;20029;-91
2023/03/19 09:30:02;;;;;;;4.03;2.88;;;11.80;99.90;;;;;;5025816;28;20488;-92
2023/03/19 09:32:29;;;;;;;3.25;2.10;;;11.90;99.90;;;;;;5024240;28;20473;-94
2023/03/19 09:34:55;;;;;;;3.38;1.95;;;12.20;99.90;;;;;;5013551;28;20187;-93
2023/03/19 09:37:21;;;;;;;4.50;2.55;;;12.10;99.90;;;;;;5024420;28;20033;-92
2023/03/19 09:39:46;;;;;;;3.50;1.65;;;12.30;99.90;;;;;;5024299;28;20573;-95
2023/03/19 09:42:30;;;;;;;1.50;0.90;;;13.10;99.90;;;;;;5024482;28;20032;-93
2023/03/19 09:44:56;;;;;;;3.00;1.15;;;13.50;99.90;;;;;;5012116;28;20036;-93
2023/03/19 09:47:38;;;;;;;5.47;1.73;;;13.30;99.90;;;;;;5027119;28;20036;-95
2023/03/19 09:50:36;;;;;;;5.65;1.85;;;13.30;99.90;;;;;;5007484;28;20032;-93
2023/03/19 09:53:21;;;;;;;4.00;3.05;;;12.60;99.90;;;;;;5036951;28;20057;-92
2023/03/19 09:55:50;;;;;;;5.20;3.15;;;12.30;99.90;;;;;;5040076;28;20029;-94
2023/03/19 09:58:17;;;;;;;5.30;3.00;;;12.20;99.90;;;;;;5025842;28;20119;-93
2023/03/19 10:00:47;;;;;;;4.13;2.58;;;12.10;99.90;;;;;;5015619;28;20040;-94
2023/03/19 10:03:41;;;;;;;3.58;2.53;;;12.10;99.90;;;;;;5035154;28;20025;-95
2023/03/19 10:06:34;;;;;;;4.10;1.52;;;12.20;99.90;;;;;;5031720;28;20036;-95
2023/03/19 10:09:45;;;;;;;3.13;1.45;;;12.50;99.90;;;;;;5022618;28;20129;-95
2023/03/19 10:12:25;;;;;;;3.70;1.77;;;12.40;99.90;;;;;;5008363;28;20049;-91
2023/03/19 10:15:13;;;;;;;4.80;2.05;;;12.50;99.90;;;;;;5013167;28;20512;-90
2023/03/19 10:17:47;;;;;;;3.95;0.98;;;13.00;99.90;;;;;;5025055;28;20413;-93
2023/03/19 10:20:29;;;;;;;2.58;1.00;;;13.70;99.90;;;;;;5042104;28;20469;-95
2023/03/19 10:23:05;;;;;;;2.72;0.60;;;14.10;99.90;;;;;;5040191;28;20379;-94
2023/03/19 10:25:32;;;;;;;2.35;0.68;;;14.50;99.90;;;;;;5036982;28;20033;-93
2023/03/19 10:28:04;;;;;;;1.98;0.82;;;14.90;99.90;;;;;;5053582;28;20029;-93
2023/03/19 10:30:32;;;;;;;4.00;1.58;;;14.70;99.90;;;;;;5020150;28;20100;-94
2023/03/19 10:33:22;;;;;;;4.78;2.30;;;14.40;99.90;;;;;;5022868;28;20033;-95
2023/03/19 10:35:56;;;;;;;8.48;3.00;;;14.40;99.90;;;;;;5017038;28;20528;-93
2023/03/19 10:38:24;;;;;;;4.80;3.05;;;14.20;99.90;;;;;;5021159;28;20037;-95
2023/03/19 10:40:56;;;;;;;4.60;2.22;;;13.70;99.90;;;;;;5011597;28;20053;-94
2023/03/19 10:43:24;;;;;;;6.38;2.33;;;13.70;99.90;;;;;;5031120;28;20116;-94
2023/03/19 10:45:50;;;;;;;4.07;1.98;;;13.40;99.90;;;;;;5041801;28;20064;-96
2023/03/19 10:48:18;;;;;;;3.50;2.22;;;13.30;99.90;;;;;;5024305;28;20064;-94
2023/03/19 10:51:03;;;;;;;3.80;2.25;;;13.20;99.90;;;;;;5030774;28;20470;-95
2023/03/19 10:53:33;;;;;;;3.50;2.00;;;13.20;99.90;;;;;;5015792;28;20045;-93
2023/03/19 10:56:03;;;;;;;7.53;3.22;;;13.20;99.90;;;;;;5041684;28;20064;-95
2023/03/19 10:58:31;;;;;;;4.63;1.67;;;13.00;99.90;;;;;;5016952;28;20052;-94
2023/03/19 11:01:03;;;;;;;5.00;2.33;;;13.00;99.90;;;;;;5030358;28;20026;-95
2023/03/19 11:03:30;;;;;;;4.07;1.67;;;13.10;99.90;;;;;;5028634;28;20057;-96
2023/03/19 11:06:22;;;;;;;3.50;1.58;;;13.20;99.90;;;;;;5027212;28;20037;-94
2023/03/19 11:09:06;;;;;;;3.40;1.38;;;13.20;99.90;;;;;;5036918;28;20041;-94
2023/03/19 11:11:46;;;;;;;2.90;1.95;;;13.80;99.90;;;;;;5021854;28;20032;-94
2023/03/19 11:14:18;;;;;;;2.38;1.48;;;14.40;99.90;;;;;;5034211;28;20386;-95
2023/03/19 11:16:58;;;;;;;2.38;1.20;;;14.90;99.90;;;;;;5020103;28;20025;-94
2023/03/19 11:19:28;;;;;;;5.43;2.40;;;14.80;99.90;;;;;;5036395;28;20091;-96
2023/03/19 11:22:20;;;;;;;4.05;2.40;;;14.50;99.90;;;;;;5042064;28;20025;-93
2023/03/19 11:24:58;;;;;;;6.40;2.13;;;14.40;99.90;;;;;;5029558;28;20106;-94
2023/03/19 11:27:30;;;;;;;3.45;1.38;;;14.80;99.90;;;;;;5043437;28;20042;-94
2023/03/19 11:29:56;;;;;;;3.38;1.40;;;15.30;99.90;;;;;;5038798;28;20021;-94
2023/03/19 11:32:52;;;;;;;4.18;2.13;;;15.20;99.90;;;;;;5018118;28;20049;-94
2023/03/19 11:35:25;;;;;;;5.50;3.10;;;14.90;99.90;;;;;;5019151;28;20036;-94
2023/03/19 11:37:59;;;;;;;4.75;3.45;;;14.30;99.90;;;;;;5021014;28;20421;-93
2023/03/19 11:40:53;;;;;;;3.63;1.98;;;14.30;99.90;;;;;;5029570;28;20034;-92
2023/03/19 11:43:39;;;;;;;5.30;3.95;;;15.20;99.90;;;;;;5020262;28;20486;-94
2023/03/19 11:46:34;;;;;;;6.80;4.18;;;15.20;99.90;;;;;;5057732;28;20052;-94
2023/03/19 11:49:37;;;;;;;4.07;3.03;;;15.40;99.90;;;;;;5007441;28;20160;-94
2023/03/19 11:52:40;;;;;;;4.65;1.50;;;15.60;99.90;;;;;;4982227;28;20478;-92
2023/03/19 11:55:16;;;;;;;3.72;1.33;;;15.70;99.90;;;;;;5003308;28;20615;-96
2023/03/19 11:58:18;;;;;;;3.67;1.55;;;16.40;99.90;;;;;;5005946;28;20417;-92
2023/03/19 12:01:00;;;;;;;5.05;2.15;;;15.80;99.90;;;;;;4982562;28;20041;-93
2023/03/19 12:03:53;;;;;;;2.45;1.40;;;15.50;99.90;;;;;;4998758;28;20255;-95
2023/03/19 12:06:47;;;;;;;6.07;2.92;;;15.60;99.90;;;;;;4999380;28;20037;-94
2023/03/19 12:09:43;;;;;;;6.45;3.35;;;15.30;99.90;;;;;;4994229;28;20049;-96
2023/03/19 12:12:16;;;;;;;4.88;2.60;;;14.80;99.90;;;;;;4984147;28;20049;-93
2023/03/19 12:14:51;;;;;;;6.80;2.78;;;14.70;99.90;;;;;;4980116;28;20442;-92
2023/03/19 12:17:27;;;;;;;4.75;2.67;;;14.70;99.90;;;;;;5011942;28;20034;-94
2023/03/19 12:20:03;;;;;;;5.50;3.13;;;14.40;99.90;;;;;;5000226;28;20033;-92
2023/03/19 12:22:54;;;;;;;4.97;3.25;;;14.20;99.90;;;;;;5016881;28;20198;-93
2023/03/19 12:25:28;;;;;;;5.63;3.35;;;14.30;99.90;;;;;;4996498;28;20029;-94
2023/03/19 12:28:32;;;;;;;6.45;2.90;;;14.30;99.90;;;;;;5009200;28;20061;-95
2023/03/19 12:31:40;;;;;;;6.57;3.38;;;14.20;99.90;;;;;;5021257;28;20029;-95
2023/03/19 12:34:35;;;;;;;5.85;3.22;;;14.10;99.90;;;;;;5022453;28;20111;-95
2023/03/19 12:37:20;;;;;;;7.93;3.75;;;14.10;99.90;;;;;;5026939;28;20497;-94
2023/03/19 12:40:41;;;;;;;6.30;3.53;;;13.90;99.90;;;;;;5031034;28;20026;-93
2023/03/19 12:43:29;;;;;;;6.78;3.53;;;14.20;99.90;;;;;;5010692;28;20144;-93
2023/03/19 12:46:26;;;;;;;16.80;10.13;;;14.70;99.90;;;;;;5033490;28;20087;-94
2023/03/19 12:49:06;;;;;;;14.95;11.45;;;14.50;99.90;;;;;;5011545;28;20029;-94
2023/03/19 12:51:37;;;;;;;20.40;14.93;;;14.30;99.90;;;;;;5036638;28;20041;-92
2023/03/19 12:54:10;;;;;;;20.75;16.50;;;14.10;99.90;;;;;;5019697;28;20243;-94
2023/03/19 12:56:43;;;;;;;18.67;13.63;;;14.00;99.90;;;;;;5027967;28;20073;-93
2023/03/19 12:59:24;;;;;;;22.02;16.05;;;14.10;99.90;;;;;;5013988;28;20021;-94
2023/03/19 13:01:58;;;;;;;19.42;14.88;;;13.90;99.90;;;;;;5029394;28;20437;-93
2023/03/19 13:04:30;;;;;;;21.15;15.35;;;13.90;99.90;;;;;;5014592;28;20030;-94
2023/03/19 13:07:04;;;;;;;21.10;14.48;;;13.70;99.90;;;;;;5037904;28;20060;-93
2023/03/19 13:09:48;;;;;;;20.92;14.13;;;13.70;99.90;;;;;;5016870;28;20035;-93
2023/03/19 13:12:24;;;;;;;24.77;16.58;;;13.70;99.90;;;;;;5010085;28;20040;-95